Time;durP1;ratioP1;P1;durP2;ratioP2;P2;SDS_P1;SDS_P2;PMS_P1;PMS_P2;Temp;Humidity;BMP_temperature;BMP_pressure;BME280_temperature;BME280_humidity;BME280_pressure;Samples;Min_cycle;Max_cycle;Signal;HPM_P1;HPM_P2
2021/01/25 00:00:00;;;;;;;32.53;17.98;;;;;;;-0.52;92.97;91258.87;1832717;78;21176;-76
2021/01/25 00:02:28;;;;;;;16.62;9.95;;;;;;;-0.48;93.09;91258.30;1800215;79;21605;-75
2021/01/25 00:04:56;;;;;;;11.75;7.97;;;;;;;-0.46;93.05;91252.58;1866010;76;22135;-76
2021/01/25 00:07:23;;;;;;;14.23;8.75;;;;;;;-0.44;93.11;91251.64;1829152;76;21615;-75
2021/01/25 00:09:51;;;;;;;16.77;9.35;;;;;;;-0.40;93.20;91241.15;1779290;79;21123;-75
2021/01/25 00:12:20;;;;;;;27.32;15.03;;;;;;;-0.35;92.99;91237.34;1812143;78;21261;-76
2021/01/25 00:14:48;;;;;;;42.83;23.30;;;;;;;-0.38;92.81;91236.75;1788548;80;21151;-75
2021/01/25 00:17:16;;;;;;;41.45;23.67;;;;;;;-0.41;92.78;91233.53;1824831;78;21863;-75
2021/01/25 00:19:46;;;;;;;44.88;24.20;;;;;;;-0.41;92.95;91223.61;1807828;79;21192;-76
2021/01/25 00:22:14;;;;;;;47.90;24.80;;;;;;;-0.38;92.98;91208.72;1847701;76;21100;-76
2021/01/25 00:24:42;;;;;;;55.55;28.75;;;;;;;-0.39;92.92;91207.95;1857814;76;21487;-75
2021/01/25 00:27:10;;;;;;;47.55;27.60;;;;;;;-0.41;92.98;91200.16;1790572;78;21214;-76
2021/01/25 00:29:37;;;;;;;59.45;30.72;;;;;;;-0.37;93.30;91197.67;1855332;77;21781;-76
2021/01/25 00:32:06;;;;;;;47.17;24.43;;;;;;;-0.30;93.35;91187.55;1821150;78;21130;-74
2021/01/25 00:34:34;;;;;;;59.05;31.48;;;;;;;-0.29;93.05;91186.42;1854968;76;21136;-74
2021/01/25 00:37:01;;;;;;;68.02;34.15;;;;;;;-0.37;92.76;91195.00;1862719;76;21725;-76
2021/01/25 00:39:28;;;;;;;47.20;27.22;;;;;;;-0.39;92.95;91197.27;1847525;76;21155;-74
2021/01/25 00:41:56;;;;;;;55.67;27.20;;;;;;;-0.39;93.00;91197.84;1913119;75;21191;-76
2021/01/25 00:44:23;;;;;;;25.25;12.35;;;;;;;-0.50;92.75;91196.50;1806069;76;21164;-76
2021/01/25 00:46:51;;;;;;;16.02;9.45;;;;;;;-0.61;92.76;91198.39;1811629;78;21107;-76
2021/01/25 00:49:19;;;;;;;12.25;8.05;;;;;;;-0.72;93.01;91193.60;1846623;76;21598;-76
2021/01/25 00:51:46;;;;;;;15.95;7.55;;;;;;;-0.77;93.31;91202.17;1860481;76;21125;-75
2021/01/25 00:54:15;;;;;;;16.15;8.90;;;;;;;-0.74;93.69;91186.75;1818857;78;21448;-75
2021/01/25 00:56:42;;;;;;;7.87;4.97;;;;;;;-0.68;93.75;91178.36;1806298;79;21518;-74
2021/01/25 00:59:10;;;;;;;12.43;8.10;;;;;;;-0.65;93.51;91176.27;1811784;79;21183;-74
2021/01/25 01:01:37;;;;;;;8.33;5.95;;;;;;;-0.69;93.41;91168.25;1862881;76;21142;-77
2021/01/25 01:04:05;;;;;;;7.25;5.08;;;;;;;-0.74;93.59;91168.06;1852539;76;21072;-74
2021/01/25 01:06:32;;;;;;;23.05;13.48;;;;;;;-0.74;93.88;91172.07;1800449;76;22000;-75
2021/01/25 01:09:00;;;;;;;22.75;13.43;;;;;;;-0.71;94.15;91165.77;1881758;76;21139;-74
2021/01/25 01:11:27;;;;;;;24.18;12.13;;;;;;;-0.63;94.22;91163.32;1808631;76;21203;-75
2021/01/25 01:13:55;;;;;;;12.25;7.35;;;;;;;-0.61;93.96;91158.34;1849652;76;21154;-74
2021/01/25 01:16:22;;;;;;;7.28;5.00;;;;;;;-0.65;93.69;91153.58;1844728;76;21140;-75
2021/01/25 01:18:50;;;;;;;8.40;5.45;;;;;;;-0.70;93.60;91140.62;1808077;76;21476;-74
2021/01/25 01:21:18;;;;;;;6.62;4.72;;;;;;;-0.76;93.67;91134.88;1881068;76;21189;-74
2021/01/25 01:23:46;;;;;;;42.13;25.20;;;;;;;-0.79;93.98;91143.09;1803690;79;21148;-73
2021/01/25 01:26:13;;;;;;;37.88;22.07;;;;;;;-0.74;94.19;91131.28;1862565;76;21656;-75
2021/01/25 01:28:41;;;;;;;34.35;19.62;;;;;;;-0.71;94.24;91125.19;1879116;75;21107;-76
2021/01/25 01:31:09;;;;;;;19.85;11.70;;;;;;;-0.68;94.04;91120.97;1848856;77;21356;-77
2021/01/25 01:33:36;;;;;;;10.38;7.55;;;;;;;-0.60;94.15;91119.83;1814179;77;21144;-75
2021/01/25 01:36:04;;;;;;;9.50;7.08;;;;;;;-0.57;93.95;91113.73;1830967;78;21111;-75
2021/01/25 01:38:32;;;;;;;8.20;4.95;;;;;;;-0.58;94.00;91102.30;1827449;78;21174;-75
2021/01/25 01:40:59;;;;;;;12.15;7.53;;;;;;;-0.55;94.21;91104.20;1858431;76;21436;-75
2021/01/25 01:43:27;;;;;;;9.90;7.25;;;;;;;-0.48;94.31;91099.45;1847639;76;22137;-76
2021/01/25 01:45:55;;;;;;;14.93;8.30;;;;;;;-0.43;94.09;91099.05;1794717;78;21135;-73
2021/01/25 01:48:22;;;;;;;25.00;14.75;;;;;;;-0.38;94.03;91083.21;1821581;78;21062;-73
2021/01/25 01:50:49;;;;;;;31.42;16.67;;;;;;;-0.31;94.02;91077.86;1786914;78;21143;-74
2021/01/25 01:53:18;;;;;;;12.78;8.70;;;;;;;-0.27;93.63;91071.94;1844062;77;21049;-73
2021/01/25 01:55:45;;;;;;;12.50;8.13;;;;;;;-0.30;93.09;91064.14;1850750;77;21360;-72
2021/01/25 01:58:14;;;;;;;4.22;3.45;;;;;;;-0.35;93.00;91060.52;1850816;77;21157;-75
2021/01/25 02:00:42;;;;;;;4.47;2.45;;;;;;;-0.44;92.98;91057.48;1794184;76;21546;-74
2021/01/25 02:03:09;;;;;;;2.25;2.05;;;;;;;-0.53;93.10;91040.53;1882920;76;21186;-74
2021/01/25 02:05:36;;;;;;;2.83;2.30;;;;;;;-0.62;93.37;91041.48;1814580;76;21164;-74
2021/01/25 02:08:04;;;;;;;2.60;2.00;;;;;;;-0.67;93.70;91031.77;1797695;78;21255;-73
2021/01/25 02:10:31;;;;;;;3.55;2.45;;;;;;;-0.68;93.94;91031.56;1771010;78;21180;-74
2021/01/25 02:13:00;;;;;;;6.65;3.95;;;;;;;-0.65;94.17;91030.80;1820468;78;21298;-76
2021/01/25 02:15:29;;;;;;;4.62;3.55;;;;;;;-0.63;94.27;91026.62;1820560;78;21177;-74
2021/01/25 02:17:57;;;;;;;3.92;3.17;;;;;;;-0.60;94.31;91029.86;1820747;78;21242;-74
2021/01/25 02:20:34;;;;;;;6.08;5.05;;;;;;;-0.56;94.17;91025.85;1873547;75;21405;-73
2021/01/25 02:23:25;;;;;;;10.00;7.25;;;;;;;-0.58;93.86;91024.88;1850177;75;21553;-74
2021/01/25 02:26:25;;;;;;;46.55;24.75;;;;;;;-0.62;93.86;91028.70;1788048;78;21111;-73
2021/01/25 02:28:53;;;;;;;21.33;12.43;;;;;;;-0.65;93.64;91022.22;1822103;78;21176;-73
2021/01/25 02:31:20;;;;;;;17.12;10.80;;;;;;;-0.68;93.68;91012.30;1820821;78;21134;-73
2021/01/25 02:33:53;;;;;;;21.60;12.20;;;;;;;-0.65;93.88;91004.11;1820801;78;21214;-74
2021/01/25 02:36:21;;;;;;;19.20;12.13;;;;;;;-0.59;93.97;90997.25;1820798;78;21592;-73
2021/01/25 02:38:50;;;;;;;15.30;8.33;;;;;;;-0.55;94.05;90998.00;1816957;78;21156;-73
2021/01/25 02:41:25;;;;;;;11.97;7.60;;;;;;;-0.53;94.05;90989.81;1792329;79;21185;-74
2021/01/25 02:43:52;;;;;;;14.68;8.38;;;;;;;-0.47;94.20;90995.50;1844856;76;21601;-75
2021/01/25 02:46:20;;;;;;;11.30;8.45;;;;;;;-0.43;93.97;91003.51;1862753;76;21348;-76
2021/01/25 02:48:48;;;;;;;7.42;6.58;;;;;;;-0.40;93.97;90996.06;1764296;78;21647;-76
2021/01/25 02:51:15;;;;;;;5.35;4.83;;;;;;;-0.35;93.92;90999.09;1821218;78;21132;-75
2021/01/25 02:53:42;;;;;;;3.72;3.12;;;;;;;-0.36;93.59;90989.56;1848964;77;21100;-76
2021/01/25 02:56:10;;;;;;;5.67;3.22;;;;;;;-0.41;93.51;90985.97;1852284;77;21759;-76
2021/01/25 02:58:37;;;;;;;1.52;1.42;;;;;;;-0.42;93.66;90983.09;1843911;77;21636;-75
2021/01/25 03:01:07;;;;;;;2.92;1.98;;;;;;;-0.42;93.68;90985.00;1820250;78;21059;-74
2021/01/25 03:03:35;;;;;;;2.20;2.00;;;;;;;-0.41;93.91;90981.96;1854926;77;21159;-75
2021/01/25 03:06:02;;;;;;;2.75;1.90;;;;;;;-0.43;93.85;90976.80;1824865;77;21171;-74
2021/01/25 03:08:29;;;;;;;1.60;1.50;;;;;;;-0.43;93.74;90978.14;1820900;77;21092;-75
2021/01/25 03:10:57;;;;;;;1.65;1.17;;;;;;;-0.44;93.72;90975.30;1840390;77;21143;-74
2021/01/25 03:13:26;;;;;;;1.65;1.42;;;;;;;-0.47;93.56;90975.48;1806382;76;21056;-76
2021/01/25 03:15:56;;;;;;;1.47;1.37;;;;;;;-0.55;93.55;90972.64;1881689;76;21087;-77
2021/01/25 03:18:25;;;;;;;1.67;1.12;;;;;;;-0.60;93.77;90979.69;1812040;79;21083;-74
2021/01/25 03:20:54;;;;;;;1.70;1.60;;;;;;;-0.55;94.21;90969.98;1814586;78;21179;-74
2021/01/25 03:23:22;;;;;;;3.90;1.45;;;;;;;-0.48;94.40;90967.30;1841333;78;22220;-73
2021/01/25 03:25:50;;;;;;;3.87;1.90;;;;;;;-0.42;94.33;90957.72;1773289;79;21183;-73
2021/01/25 03:28:17;;;;;;;3.05;2.10;;;;;;;-0.32;94.28;90962.28;1816465;78;21147;-73
2021/01/25 03:30:45;;;;;;;5.50;2.17;;;;;;;-0.26;93.98;90954.64;1817368;77;21112;-73
2021/01/25 03:33:12;;;;;;;4.70;3.02;;;;;;;-0.25;93.80;90949.48;1819296;78;21558;-74
2021/01/25 03:35:40;;;;;;;1.62;1.52;;;;;;;-0.20;93.92;90950.98;1858794;76;21789;-74
2021/01/25 03:38:07;;;;;;;2.45;2.05;;;;;;;-0.15;93.75;90943.34;1846692;76;21195;-74
2021/01/25 03:40:35;;;;;;;10.25;7.78;;;;;;;-0.15;93.27;90942.55;1806527;76;21682;-73
2021/01/25 03:43:03;;;;;;;26.55;15.50;;;;;;;-0.23;93.01;90945.83;1881604;76;21613;-73
2021/01/25 03:45:31;;;;;;;134.70;65.83;;;;;;;-0.27;92.99;90933.83;1841647;77;21119;-74
2021/01/25 03:47:59;;;;;;;30.35;16.95;;;;;;;-0.30;92.86;90926.61;1851995;77;21991;-76
2021/01/25 03:50:26;;;;;;;12.73;8.65;;;;;;;-0.35;92.55;90926.23;1815200;78;21153;-75
2021/01/25 03:52:54;;;;;;;17.98;10.72;;;;;;;-0.39;92.64;90920.91;1817665;77;21116;-77
2021/01/25 03:55:21;;;;;;;13.65;7.83;;;;;;;-0.39;92.76;90911.56;1850867;75;21112;-76
2021/01/25 03:57:49;;;;;;;6.83;4.50;;;;;;;-0.44;92.65;90906.63;1891005;75;21142;-75
2021/01/25 04:00:17;;;;;;;2.98;2.20;;;;;;;-0.51;92.78;90903.98;1830428;75;21180;-77
2021/01/25 04:02:45;;;;;;;2.37;1.30;;;;;;;-0.57;93.07;90901.52;1820154;78;21163;-74
2021/01/25 04:05:13;;;;;;;1.98;1.50;;;;;;;-0.62;93.29;90897.34;1852158;77;21104;-75
2021/01/25 04:07:40;;;;;;;1.72;1.35;;;;;;;-0.67;93.46;90899.09;1803434;76;21430;-76
2021/01/25 04:10:08;;;;;;;1.27;1.15;;;;;;;-0.69;93.95;90892.02;1884642;76;21131;-75
2021/01/25 04:12:37;;;;;;;1.80;1.20;;;;;;;-0.63;94.25;90886.48;1817534;76;21653;-75
2021/01/25 04:15:06;;;;;;;2.05;1.27;;;;;;;-0.57;94.32;90877.49;1836062;77;21134;-74
2021/01/25 04:17:34;;;;;;;1.35;1.25;;;;;;;-0.52;94.52;90873.11;1862021;76;21028;-74
2021/01/25 04:20:04;;;;;;;1.30;1.17;;;;;;;-0.44;94.51;90869.83;1831509;78;21182;-75
2021/01/25 04:22:33;;;;;;;1.60;1.50;;;;;;;-0.39;94.32;90864.08;1813575;78;21158;-74
2021/01/25 04:25:01;;;;;;;1.90;1.60;;;;;;;-0.35;94.17;90864.82;1786761;80;21222;-74
2021/01/25 04:27:28;;;;;;;4.97;2.25;;;;;;;-0.31;94.12;90850.88;1806667;79;21187;-74
2021/01/25 04:29:55;;;;;;;7.47;4.58;;;;;;;-0.27;93.94;90853.70;1817438;78;21154;-73
2021/01/25 04:32:25;;;;;;;11.83;7.62;;;;;;;-0.27;93.70;90851.03;1816553;78;21096;-75
2021/01/25 04:34:53;;;;;;;16.45;9.15;;;;;;;-0.24;93.74;90845.50;1805296;79;21178;-75
2021/01/25 04:37:20;;;;;;;17.73;10.80;;;;;;;-0.25;93.68;90846.08;1828174;78;21890;-73
2021/01/25 04:39:51;;;;;;;19.10;10.65;;;;;;;-0.22;93.79;90850.47;1847364;77;21234;-74
2021/01/25 04:42:18;;;;;;;32.38;19.50;;;;;;;-0.19;93.85;90852.34;1801540;79;21654;-75
2021/01/25 04:44:46;;;;;;;27.60;16.65;;;;;;;-0.19;93.67;90834.97;1786032;80;21187;-73
2021/01/25 04:47:13;;;;;;;28.52;15.78;;;;;;;-0.18;93.81;90833.27;1830277;76;21159;-75
2021/01/25 04:49:42;;;;;;;28.23;17.02;;;;;;;-0.11;93.97;90826.55;1875389;76;21056;-74
2021/01/25 04:52:10;;;;;;;34.75;19.57;;;;;;;-0.04;93.83;90820.38;1796891;78;21155;-75
2021/01/25 04:54:37;;;;;;;35.40;21.27;;;;;;;0.03;93.70;90811.56;1818089;78;21195;-73
2021/01/25 04:57:05;;;;;;;32.63;22.80;;;;;;;0.03;93.21;90814.23;1856377;76;21161;-73
2021/01/25 04:59:33;;;;;;;32.93;21.85;;;;;;;-0.04;92.89;90804.34;1847618;76;21163;-73
2021/01/25 05:02:00;;;;;;;18.40;12.03;;;;;;;-0.09;92.86;90796.77;1803629;76;21239;-74
2021/01/25 05:04:29;;;;;;;7.70;5.12;;;;;;;-0.13;92.82;90796.03;1855826;76;21163;-75
2021/01/25 05:06:57;;;;;;;9.58;6.90;;;;;;;-0.16;92.96;90796.22;1828328;76;21131;-74
2021/01/25 05:09:24;;;;;;;12.00;7.85;;;;;;;-0.15;93.23;90795.09;1863420;76;21674;-73
2021/01/25 05:12:01;;;;;;;38.60;20.32;;;;;;;-0.10;93.43;90797.34;1839751;76;21088;-73
2021/01/25 05:14:41;;;;;;;33.40;16.97;;;;;;;-0.03;93.41;90789.86;1819143;76;22116;-74
2021/01/25 05:17:12;;;;;;;22.67;12.70;;;;;;;-0.04;93.05;90778.42;1900156;74;21247;-75
2021/01/25 05:19:43;;;;;;;26.90;14.20;;;;;;;-0.04;93.21;90781.64;1852557;77;21088;-75
2021/01/25 05:22:20;;;;;;;28.67;14.63;;;;;;;-0.01;93.33;90771.51;1881702;76;21025;-75
2021/01/25 05:24:54;;;;;;;34.30;17.05;;;;;;;0.02;93.07;90776.08;1803642;77;21587;-75
2021/01/25 05:27:28;;;;;;;35.43;18.40;;;;;;;-0.02;92.59;90782.02;1849719;76;21585;-74
2021/01/25 05:30:11;;;;;;;41.48;21.35;;;;;;;-0.11;92.39;90781.72;1840951;76;21151;-75
2021/01/25 05:32:54;;;;;;;52.30;27.80;;;;;;;-0.16;92.93;90774.10;1821465;76;21139;-75
2021/01/25 05:35:30;;;;;;;16.17;9.70;;;;;;;-0.16;93.28;90764.17;1861051;76;21442;-75
2021/01/25 05:38:07;;;;;;;7.45;4.53;;;;;;;-0.14;93.29;90773.91;1790323;77;21660;-75
2021/01/25 05:40:37;;;;;;;7.95;4.65;;;;;;;-0.13;93.12;90773.33;1820968;78;22078;-75
2021/01/25 05:43:14;;;;;;;4.78;3.60;;;;;;;-0.17;93.12;90769.92;1853329;77;21163;-75
2021/01/25 05:45:42;;;;;;;2.87;2.30;;;;;;;-0.15;93.27;90769.72;1856307;75;21178;-76
2021/01/25 05:48:13;;;;;;;6.97;2.85;;;;;;;-0.14;93.08;90773.91;1835633;76;21195;-77
2021/01/25 05:50:43;;;;;;;3.08;2.15;;;;;;;-0.11;93.27;90776.38;1862066;76;21132;-74
2021/01/25 05:53:12;;;;;;;2.75;2.00;;;;;;;-0.08;93.15;90770.22;1816382;78;21583;-76
2021/01/25 05:55:42;;;;;;;3.45;2.75;;;;;;;-0.08;93.09;90772.31;1833680;78;21195;-76
2021/01/25 05:58:10;;;;;;;3.20;2.10;;;;;;;-0.09;93.11;90764.13;1873255;76;21087;-75
2021/01/25 06:00:37;;;;;;;4.97;2.90;;;;;;;-0.03;93.35;90762.56;1825519;76;21176;-75
2021/01/25 06:03:05;;;;;;;2.70;2.40;;;;;;;0.02;93.21;90772.06;1803629;76;21131;-76
2021/01/25 06:05:36;;;;;;;1.90;1.80;;;;;;;0.02;93.15;90761.38;1860533;76;21222;-77
2021/01/25 06:08:32;;;;;;;2.17;1.82;;;;;;;0.01;93.06;90757.20;1791772;76;21115;-77
2021/01/25 06:11:13;;;;;;;4.92;2.37;;;;;;;-0.01;92.99;90760.24;1880558;76;21092;-76
2021/01/25 06:13:59;;;;;;;1.67;1.52;;;;;;;-0.02;93.09;90756.64;1818261;78;21184;-76
2021/01/25 06:16:29;;;;;;;1.92;1.80;;;;;;;-0.02;93.17;90753.39;1889047;75;21170;-76
2021/01/25 06:19:09;;;;;;;3.22;1.67;;;;;;;-0.02;93.22;90753.97;1819436;75;21186;-75
2021/01/25 06:21:40;;;;;;;1.77;1.60;;;;;;;-0.04;93.15;90742.91;1817645;78;21673;-75
2021/01/25 06:24:08;;;;;;;1.90;1.40;;;;;;;-0.07;93.26;90747.72;1836467;77;21276;-76
2021/01/25 06:26:36;;;;;;;6.60;2.95;;;;;;;-0.03;93.65;90741.77;1804457;78;21263;-76
2021/01/25 06:29:05;;;;;;;5.95;2.80;;;;;;;0.02;93.60;90741.34;1749342;81;21614;-75
2021/01/25 06:31:40;;;;;;;3.92;2.47;;;;;;;0.07;93.53;90736.14;1817628;77;21409;-75
2021/01/25 06:34:10;;;;;;;2.80;1.98;;;;;;;0.12;93.45;90737.83;1759791;77;21615;-76
2021/01/25 06:36:41;;;;;;;3.92;1.67;;;;;;;0.15;93.17;90733.04;1773716;79;21668;-74
2021/01/25 06:39:09;;;;;;;2.02;1.50;;;;;;;0.16;93.15;90731.12;1795194;79;21163;-75
2021/01/25 06:41:38;;;;;;;1.37;1.27;;;;;;;0.20;93.28;90729.17;1817555;77;21154;-77
2021/01/25 06:44:07;;;;;;;1.92;1.57;;;;;;;0.23;93.19;90732.39;1831773;77;22355;-77
2021/01/25 06:46:37;;;;;;;1.17;1.10;;;;;;;0.23;92.83;90737.74;1795716;79;21163;-77
2021/01/25 06:49:08;;;;;;;2.42;2.12;;;;;;;0.19;92.95;90731.09;1815206;78;21237;-78
2021/01/25 06:51:40;;;;;;;257.48;100.00;;;;;;;0.23;93.12;90727.05;1847312;75;21163;-75
2021/01/25 06:54:09;;;;;;;11.83;6.45;;;;;;;0.25;93.02;90727.40;1824408;78;21707;-76
2021/01/25 06:56:59;;;;;;;17.07;13.28;;;;;;;0.31;93.06;90723.73;1832429;77;21355;-75
2021/01/25 06:59:30;;;;;;;19.07;13.85;;;;;;;0.34;93.00;90717.57;1808311;76;21111;-75
2021/01/25 07:01:58;;;;;;;11.30;6.83;;;;;;;0.34;92.72;90713.02;1885962;75;21165;-77
2021/01/25 07:04:29;;;;;;;10.05;5.75;;;;;;;0.32;92.55;90711.88;1810370;76;21095;-76
2021/01/25 07:06:57;;;;;;;8.45;6.03;;;;;;;0.26;92.53;90708.11;1816511;78;21064;-73
2021/01/25 07:09:31;;;;;;;19.32;11.20;;;;;;;0.24;92.75;90708.52;1850247;77;21357;-75
2021/01/25 07:12:00;;;;;;;10.55;7.03;;;;;;;0.27;92.95;90701.63;1846449;77;21451;-75
2021/01/25 07:14:29;;;;;;;18.10;9.93;;;;;;;0.31;92.98;90699.09;1791446;76;21533;-77
2021/01/25 07:16:58;;;;;;;57.25;27.13;;;;;;;0.34;93.10;90698.31;1879625;76;21091;-77
2021/01/25 07:19:26;;;;;;;44.13;24.47;;;;;;;0.38;92.97;90695.02;1858352;75;21843;-76
2021/01/25 07:21:54;;;;;;;31.33;18.62;;;;;;;0.43;92.97;90704.52;1831716;77;21136;-76
2021/01/25 07:24:27;;;;;;;26.52;16.30;;;;;;;0.45;92.87;90688.27;1819137;78;21155;-77
2021/01/25 07:26:58;;;;;;;30.82;18.90;;;;;;;0.51;92.97;90697.18;1820274;78;21120;-76
2021/01/25 07:29:26;;;;;;;27.98;16.90;;;;;;;0.58;93.02;90695.77;1818401;78;21095;-76
2021/01/25 07:31:55;;;;;;;28.45;18.12;;;;;;;0.63;92.89;90694.73;1823610;78;21096;-76
2021/01/25 07:34:30;;;;;;;32.05;19.25;;;;;;;0.64;92.57;90680.78;1863920;76;21397;-75
2021/01/25 07:36:52;;;;;;;35.48;23.32;;;;;;;0.65;92.51;90687.67;1852987;77;21171;-78
2021/01/25 07:39:20;;;;;;;38.35;24.52;;;;;;;0.65;92.47;90685.75;1832373;77;21258;-76
2021/01/25 07:41:47;;;;;;;36.35;24.47;;;;;;;0.68;92.47;90680.19;1879941;75;21275;-76
2021/01/25 07:44:15;;;;;;;36.73;24.65;;;;;;;0.67;92.30;90682.08;1818890;78;21225;-77
2021/01/25 07:46:45;;;;;;;94.17;55.30;;;;;;;0.65;92.33;90685.75;1868403;76;21794;-76
2021/01/25 07:49:13;;;;;;;51.35;29.40;;;;;;;0.61;92.26;90682.36;1822956;76;21666;-77
2021/01/25 07:51:43;;;;;;;38.13;22.62;;;;;;;0.55;92.38;90679.94;1802168;78;21672;-77
2021/01/25 07:54:15;;;;;;;15.38;9.00;;;;;;;0.52;92.81;90675.38;1848249;77;21230;-79
2021/01/25 07:56:43;;;;;;;12.85;8.00;;;;;;;0.55;92.96;90669.23;1805993;76;21125;-77
2021/01/25 07:59:17;;;;;;;33.23;20.50;;;;;;;0.58;92.88;90669.78;1878964;76;21413;-78
2021/01/25 08:01:49;;;;;;;33.70;18.20;;;;;;;0.61;92.93;90668.98;1834139;76;21121;-76
2021/01/25 08:04:21;;;;;;;44.77;23.18;;;;;;;0.61;92.79;90670.33;1826120;78;21558;-75
2021/01/25 08:06:48;;;;;;;13.43;8.40;;;;;;;0.59;92.77;90663.85;1779544;79;21090;-75
2021/01/25 08:09:18;;;;;;;10.03;6.67;;;;;;;0.58;93.00;90666.35;1816013;77;21083;-77
2021/01/25 08:11:45;;;;;;;11.18;6.67;;;;;;;0.57;92.96;90664.84;1893252;75;21195;-77
2021/01/25 08:14:38;;;;;;;9.20;6.35;;;;;;;0.57;93.29;90662.17;1748510;81;21393;-77
2021/01/25 08:17:14;;;;;;;4.85;3.52;;;;;;;0.57;93.52;90663.51;1822602;78;21068;-76
2021/01/25 08:19:55;;;;;;;5.78;5.03;;;;;;;0.64;93.92;90657.50;1823717;77;21115;-78
2021/01/25 08:22:51;;;;;;;6.10;4.30;;;;;;;0.73;93.80;90651.07;1830053;77;21079;-75
2021/01/25 08:25:21;;;;;;;14.43;9.45;;;;;;;0.78;93.86;90658.47;1858835;76;21381;-77
2021/01/25 08:28:05;;;;;;;17.20;11.33;;;;;;;0.83;93.96;90657.47;1853453;77;21163;-76
2021/01/25 08:30:40;;;;;;;28.77;15.03;;;;;;;0.90;94.09;90653.36;1849757;76;21147;-79
2021/01/25 08:33:10;;;;;;;7.67;5.80;;;;;;;1.00;94.16;90659.72;1858124;76;21252;-75
2021/01/25 08:35:44;;;;;;;9.98;7.37;;;;;;;1.06;94.12;90656.78;1810967;79;21567;-78
2021/01/25 08:38:37;;;;;;;15.38;10.75;;;;;;;1.14;94.25;90650.76;1872047;76;21353;-79
2021/01/25 08:41:32;;;;;;;33.30;20.15;;;;;;;1.23;94.21;90648.33;1812804;76;21199;-76
2021/01/25 08:44:11;;;;;;;39.00;22.62;;;;;;;1.26;94.09;90658.23;1780035;79;21091;-75
2021/01/25 08:46:41;;;;;;;44.83;26.12;;;;;;;1.29;94.00;90656.09;1845804;77;21088;-75
2021/01/25 08:49:20;;;;;;;42.80;26.50;;;;;;;1.31;93.93;90643.63;1808109;77;21604;-76
2021/01/25 08:52:06;;;;;;;40.67;24.82;;;;;;;1.34;94.08;90639.56;1791171;79;21197;-79
2021/01/25 08:54:37;;;;;;;34.53;22.75;;;;;;;1.43;94.16;90643.09;1777556;79;21188;-75
2021/01/25 08:57:24;;;;;;;31.80;20.23;;;;;;;1.52;94.33;90644.66;1826221;75;21526;-75
2021/01/25 08:59:51;;;;;;;31.50;20.82;;;;;;;1.59;94.27;90641.88;1902228;75;21432;-75
2021/01/25 09:02:22;;;;;;;41.05;22.85;;;;;;;1.67;94.13;90648.64;1856216;76;21147;-77
2021/01/25 09:04:52;;;;;;;37.70;23.00;;;;;;;1.72;93.83;90647.41;1815686;76;21433;-80
2021/01/25 09:07:23;;;;;;;41.28;24.45;;;;;;;1.75;93.84;90651.96;1875860;75;21162;-75
2021/01/25 09:09:51;;;;;;;42.50;27.25;;;;;;;1.78;93.86;90649.06;1858339;75;21523;-76
2021/01/25 09:12:19;;;;;;;34.13;21.27;;;;;;;1.83;94.26;90652.61;1816782;76;21437;-76
2021/01/25 09:14:47;;;;;;;31.40;19.70;;;;;;;1.88;94.30;90647.55;1883294;76;21151;-77
2021/01/25 09:17:15;;;;;;;32.88;19.87;;;;;;;1.94;94.14;90643.22;1817583;76;22147;-75
2021/01/25 09:19:42;;;;;;;29.95;19.77;;;;;;;2.02;94.31;90643.86;1838702;77;21144;-76
2021/01/25 09:22:11;;;;;;;27.52;18.27;;;;;;;2.10;94.40;90639.89;1846565;76;21115;-76
2021/01/25 09:24:39;;;;;;;22.25;14.33;;;;;;;2.16;94.25;90633.48;1794222;78;21129;-75
2021/01/25 09:27:08;;;;;;;18.82;12.35;;;;;;;2.23;94.05;90636.05;1798430;78;21100;-74
2021/01/25 09:29:36;;;;;;;22.58;13.55;;;;;;;2.25;93.74;90636.38;1802518;79;21227;-77
2021/01/25 09:32:05;;;;;;;18.55;11.95;;;;;;;2.34;94.11;90617.84;1797281;79;21164;-74
2021/01/25 09:34:33;;;;;;;34.40;21.17;;;;;;;2.43;94.11;90615.36;1843504;76;21060;-73
2021/01/25 09:37:02;;;;;;;25.48;16.65;;;;;;;2.53;94.39;90628.41;1882879;75;21550;-77
2021/01/25 09:39:30;;;;;;;24.65;15.98;;;;;;;2.58;94.29;90622.55;1813729;77;21253;-75
2021/01/25 09:41:57;;;;;;;15.93;10.45;;;;;;;2.65;94.13;90618.39;1799123;79;21363;-76
2021/01/25 09:44:25;;;;;;;12.63;8.25;;;;;;;2.73;93.93;90620.36;1796454;79;21889;-75
2021/01/25 09:46:52;;;;;;;8.03;6.30;;;;;;;2.81;93.70;90623.66;1794746;79;21118;-74
2021/01/25 09:49:21;;;;;;;14.43;9.73;;;;;;;2.90;93.19;90623.28;1808857;78;21877;-74
2021/01/25 09:51:48;;;;;;;11.18;8.00;;;;;;;3.00;92.87;90623.46;1831018;77;21192;-74
2021/01/25 09:54:16;;;;;;;12.82;8.38;;;;;;;3.07;92.17;90617.36;1791813;76;21220;-76
2021/01/25 09:56:43;;;;;;;10.13;6.12;;;;;;;3.11;91.75;90611.91;1870315;76;21669;-73
2021/01/25 09:59:11;;;;;;;10.25;7.12;;;;;;;3.11;91.67;90621.31;1821348;76;21120;-76
2021/01/25 10:01:39;;;;;;;9.33;6.87;;;;;;;3.12;91.62;90612.08;1848057;76;21087;-76
2021/01/25 10:04:06;;;;;;;344.23;224.58;;;;;;;3.14;91.61;90615.87;1847233;77;21518;-76
2021/01/25 10:06:34;;;;;;;64.82;44.75;;;;;;;3.20;91.05;90612.68;1838932;76;21319;-73
2021/01/25 10:09:02;;;;;;;14.25;8.80;;;;;;;3.22;90.89;90615.72;1871982;76;21399;-74
2021/01/25 10:11:32;;;;;;;11.78;7.50;;;;;;;3.23;90.41;90601.86;1799101;76;21168;-77
2021/01/25 10:13:59;;;;;;;8.68;5.37;;;;;;;3.27;90.32;90595.84;1839735;76;21144;-77
2021/01/25 10:16:26;;;;;;;8.18;5.72;;;;;;;3.30;90.22;90600.36;1846661;76;21171;-74
2021/01/25 10:18:54;;;;;;;7.83;5.25;;;;;;;3.34;90.07;90605.66;1829872;76;21457;-75
2021/01/25 10:21:21;;;;;;;9.78;6.30;;;;;;;3.35;89.90;90620.63;1844847;77;21167;-77
2021/01/25 10:23:49;;;;;;;9.55;6.67;;;;;;;3.30;89.82;90635.28;1833597;78;21180;-76
2021/01/25 10:26:19;;;;;;;3.08;2.60;;;;;;;3.24;90.45;90626.81;1863730;76;21163;-77
2021/01/25 10:28:48;;;;;;;3.08;1.90;;;;;;;3.14;87.71;90631.23;1826663;76;21149;-77
2021/01/25 10:31:17;;;;;;;3.17;1.62;;;;;;;3.06;86.42;90651.34;1823935;77;22085;-75
2021/01/25 10:33:44;;;;;;;1.92;1.70;;;;;;;3.01;84.80;90674.63;1860734;76;21350;-74
2021/01/25 10:36:12;;;;;;;1.22;1.12;;;;;;;2.96;84.76;90661.11;1811121;79;21590;-75
2021/01/25 10:38:40;;;;;;;1.90;1.80;;;;;;;2.88;84.33;90673.16;1865613;76;21075;-76
2021/01/25 10:41:08;;;;;;;2.17;1.75;;;;;;;2.80;85.12;90669.11;1817610;76;21607;-75
2021/01/25 10:43:36;;;;;;;1.10;1.00;;;;;;;2.73;85.11;90673.27;1807980;78;21414;-76
2021/01/25 10:46:03;;;;;;;3.37;1.27;;;;;;;2.65;85.39;90716.33;1831145;77;21263;-76
2021/01/25 10:48:33;;;;;;;2.55;1.35;;;;;;;2.56;84.79;90711.34;1780017;76;21198;-76
2021/01/25 10:51:00;;;;;;;1.10;0.88;;;;;;;2.42;83.62;90736.48;1871518;76;21614;-73
2021/01/25 10:53:28;;;;;;;1.02;0.93;;;;;;;2.23;83.51;90741.20;1857841;75;21162;-72
2021/01/25 10:55:55;;;;;;;0.80;0.75;;;;;;;2.09;81.89;90760.94;1798106;78;21416;-76
2021/01/25 10:58:23;;;;;;;0.90;0.82;;;;;;;1.95;81.61;90737.78;1821660;77;21178;-74
2021/01/25 11:00:52;;;;;;;0.80;0.65;;;;;;;1.88;81.67;90735.98;1829771;75;21209;-75
2021/01/25 11:03:20;;;;;;;1.20;1.05;;;;;;;1.81;81.35;90770.17;1893517;75;21182;-75
2021/01/25 11:05:47;;;;;;;0.70;0.70;;;;;;;1.76;81.96;90757.95;1828273;75;21191;-75
2021/01/25 11:08:15;;;;;;;2.10;1.25;;;;;;;1.70;80.94;90767.05;1833906;77;21466;-75
2021/01/25 11:10:42;;;;;;;0.68;0.65;;;;;;;1.65;82.02;90762.70;1851220;76;21165;-75
2021/01/25 11:13:10;;;;;;;1.00;0.90;;;;;;;1.60;82.53;90763.92;1816467;78;21176;-75
2021/01/25 11:15:39;;;;;;;0.72;0.60;;;;;;;1.56;82.83;90757.09;1819977;78;21164;-76
2021/01/25 11:18:07;;;;;;;1.22;1.00;;;;;;;1.54;83.00;90771.46;1821382;78;21080;-74
2021/01/25 11:20:34;;;;;;;0.78;0.78;;;;;;;1.50;82.48;90773.43;1821880;78;21234;-75
2021/01/25 11:23:02;;;;;;;1.27;0.75;;;;;;;1.46;82.50;90772.13;1810671;79;21203;-75
2021/01/25 11:25:29;;;;;;;0.80;0.80;;;;;;;1.42;81.89;90774.86;1845994;76;21642;-74
2021/01/25 11:27:57;;;;;;;1.00;0.93;;;;;;;1.37;82.29;90779.33;1862922;76;21191;-74
2021/01/25 11:30:25;;;;;;;0.50;0.50;;;;;;;1.33;80.99;90785.31;1809421;79;21187;-73
2021/01/25 11:32:52;;;;;;;0.62;0.40;;;;;;;1.25;79.94;90769.74;1861119;76;21354;-74
2021/01/25 11:35:20;;;;;;;0.70;0.70;;;;;;;1.17;79.01;90785.13;1819332;76;21045;-73
2021/01/25 11:37:47;;;;;;;0.85;0.80;;;;;;;1.06;77.73;90778.55;1813714;76;20990;-74
2021/01/25 11:40:16;;;;;;;0.80;0.60;;;;;;;1.01;78.82;90795.61;1900219;75;21162;-76